• Join FlightAware (Why Join?)
  • Login
  • US Flag 
07:26PM EST


 

Airport Tracker/Info


-or-


 

Live Flight TrackerFlight Track Log ✈ N738LM ✈ 08-Jul-2014 ✈ KPBI - KEYW

Flight Track Log - Related Links

Times and Time Zones

All times are in EDT time to prevent confusion due to time zone crossing. See the N738LM flight status page for this flight to view local times or setup timezone preferences in your user account.

Time Position Orientation Groundspeed Altitude Reporting Facility
EDT Latitude Longitude Course Direction KTS MPH feet Rate Location/Type
09:51AM 26.6308 -80.1000 225° Southwest 79 91 1,600  Level Miami Center
09:52AM 26.6122 -80.1158 217° Southwest 79 91 2,000 300 Climbing Miami Center
09:53AM 26.5961 -80.1314 221° Southwest 79 91 2,300 300 Climbing Miami Center
09:54AM 26.5036 -80.2252 219° Southwest  Level FlightAware Approximate
09:54AM 26.5803 -80.1472 222° Southwest 78 90 2,700  Level Miami Center
09:55AM 26.4759 -80.2501 219° Southwest  Level FlightAware Approximate
09:55AM 26.5633 -80.1661 225° Southwest 78 90 3,000  Level Miami Center
09:56AM 26.5472 -80.1811 220° Southwest 78 90 3,300 240 Climbing Miami Center
09:57AM 26.5300 -80.1956 217° Southwest 78 90 3,600 300 Climbing Miami Center
09:58AM 26.5125 -80.2117 219° Southwest 78 90 4,000 300 Climbing Miami Center
09:59AM 26.4953 -80.2264 217° Southwest 77 89 4,300 240 Climbing Miami Center
09:59AM 26.4886 -80.2325 219° Southwest 77 89 4,400 180 Climbing Miami Center
10:00AM 26.4797 -80.2436 228° Southwest 78 90 4,500 180 Climbing Miami Center
10:00AM 26.4750 -80.2500 230° Southwest 82 94 4,600 60 Climbing Miami Center
10:01AM 26.4589 -80.2653 220° Southwest 93 107 4,600  Level Miami Center
10:01AM 26.4503 -80.2761 228° Southwest 102 117 4,600  Level Miami Center
10:02AM 26.4383 -80.2883 222° Southwest 99 114 4,600  Level Miami Center
10:02AM 26.4344 -80.2933 229° Southwest 107 123 4,600  Level Miami Center
10:03AM 26.4150 -80.3131 222° Southwest 103 119 4,600  Level Miami Center
10:04AM 26.3950 -80.3358 226° Southwest 103 119 4,600  Level Miami Center
10:05AM 26.3731 -80.3583 223° Southwest 104 120 4,600  Level Miami Center
10:06AM 26.3492 -80.3833 223° Southwest 105 121 4,600  Level Miami Center
10:07AM 26.3278 -80.4050 222° Southwest 105 121 4,600  Level Miami Center
10:08AM 26.3039 -80.4289 222° Southwest 105 121 4,600  Level Miami Center
10:09AM 26.2800 -80.4478 215° Southwest 105 121 4,600  Level Miami Center
10:10AM 26.2569 -80.4678 218° Southwest 105 121 4,600  Level Miami Center
10:11AM 26.2492 -80.4742 216° Southwest 108 124 4,600  Level Miami Center
10:11AM 26.2336 -80.4867 216° Southwest 106 122 4,600  Level Miami Center
10:12AM 26.2089 -80.5058 215° Southwest 106 122 4,600  Level Miami Center
10:13AM 26.1856 -80.5272 219° Southwest 106 122 4,600  Level Miami Center
10:14AM 26.1592 -80.5531 221° Southwest 106 122 4,600  Level Miami Center
10:15AM 26.1381 -80.5750 223° Southwest 106 122 4,600  Level Miami Center
10:16AM 26.1178 -80.5986 226° Southwest 106 122 4,600  Level Miami Center
10:18AM 26.0972 -80.6214 225° Southwest 106 122 4,600  Level Miami Center
10:19AM 26.0742 -80.6506 229° Southwest 106 122 4,600  Level Miami Center
10:20AM 26.0519 -80.6719 221° Southwest 107 123 4,600  Level Miami Center
10:21AM 26.0297 -80.6911 218° Southwest 108 124 4,600  Level Miami Center
10:22AM 26.0014 -80.7072 207° Southwest 106 122 4,600  Level Miami Center
10:23AM 25.9711 -80.7211 202° Southwest 107 123 4,600  Level Miami Center
10:24AM 25.9461 -80.7344 206° Southwest 107 123 4,600  Level Miami Center
10:25AM 25.9147 -80.7489 202° Southwest 106 122 4,600  Level Miami Center
10:26AM 25.8911 -80.7608 204° Southwest 104 120 4,600  Level Miami Center
10:27AM 25.8650 -80.7750 206° Southwest 110 127 4,600  Level Miami Center
10:27AM 25.8661 -80.7753 347° North 106 122 4,600  Level Miami Center
10:28AM 25.8386 -80.7914 208° Southwest 110 127 4,600 -120 Level Miami Center
10:28AM 25.8339 -80.7953 217° Southwest 107 123 4,500 -120 Descending Miami Center
10:29AM 25.8122 -80.8122 215° Southwest 110 127 4,500  Level Miami Center
10:29AM 25.8100 -80.8144 222° Southwest 108 124 4,500 60 Level Miami Center
10:30AM 25.7872 -80.8353 219° Southwest 108 124 4,600  Climbing Miami Center
10:31AM 25.7669 -80.8561 223° Southwest 105 121 4,600  Level Miami Center
10:32AM 25.7439 -80.8783 221° Southwest 107 123 4,600  Level Miami Center
10:33AM 25.7211 -80.8975 217° Southwest 106 122 4,600  Level Miami Center
10:34AM 25.6894 -80.9175 210° Southwest 106 122 4,600  Level Miami Center
10:35AM 25.6642 -80.9367 214° Southwest 112 129 4,600  Level Miami Center
10:36AM 25.6411 -80.9572 219° Southwest 111 128 4,600  Level Miami Center
10:37AM 25.6194 -80.9808 224° Southwest 109 125 4,600 -60 Level Miami Center
10:38AM 25.5994 -81.0069 230° Southwest 110 127 4,500  Descending Miami Center
10:39AM 25.5794 -81.0325 229° Southwest 110 127 4,600  Climbing Miami Center
10:40AM 25.5583 -81.0558 225° Southwest 108 124 4,600 -60 Level Miami Center
10:41AM 25.5331 -81.0853 226° Southwest 108 124 4,500  Descending Miami Center
10:43AM 25.4933 -81.1353 210° Southwest 109 125 4,600  Climbing Miami Center
10:44AM 25.4725 -81.1611 228° Southwest 109 125 4,500  Descending Miami Center
10:45AM 25.4528 -81.1858 229° Southwest 110 127 4,600  Climbing Miami Center
10:46AM 25.4331 -81.2100 228° Southwest 109 125 4,500  Descending Miami Center
10:47AM 25.4064 -81.2386 224° Southwest 109 125 4,600  Climbing Miami Center
10:48AM 25.3842 -81.2617 223° Southwest 109 125 4,600  Level Miami Center
10:49AM 25.3628 -81.2853 225° Southwest 109 125 4,600  Level Miami Center
10:50AM 25.3422 -81.3086 226° Southwest 109 125 4,600  Level Miami Center
10:52AM 25.3203 -81.3328 225° Southwest 109 125 4,600 -60 Level Miami Center
10:53AM 25.2997 -81.3558 225° Southwest 109 125 4,500  Descending Miami Center
10:54AM 25.2739 -81.3839 224° Southwest 109 125 4,600  Climbing Miami Center
10:55AM 25.2514 -81.4042 219° Southwest 108 124 4,600 -60 Level Miami Center
10:56AM 25.2283 -81.4250 219° Southwest 108 124 4,500  Descending Miami Center
10:57AM 25.2053 -81.4456 219° Southwest 108 124 4,600  Climbing Miami Center
10:58AM 25.1792 -81.4550 198° South 102 117 4,600  Level Miami Center
10:59AM 25.1533 -81.4689 206° Southwest 101 116 4,600 -60 Level Miami Center
11:00AM 25.1225 -81.4853 206° Southwest 101 116 4,500 -60 Descending Miami Center
11:01AM 25.0958 -81.4986 204° Southwest 102 117 4,500  Level Miami Center
11:02AM 25.0717 -81.5114 206° Southwest 101 116 4,500  Level Miami Center
11:03AM 25.0481 -81.5272 211° Southwest 101 116 4,500  Level Miami Center
11:04AM 25.0250 -81.5453 215° Southwest 101 116 4,500  Level Miami Center
11:05AM 25.0017 -81.5594 209° Southwest 100 115 4,500  Level Miami Center
11:06AM 24.9717 -81.5736 203° Southwest 99 114 4,600  Climbing Miami Center
11:07AM 24.9467 -81.5836 200° South 99 114 4,600  Level Miami Center
11:08AM 24.9197 -81.5939 199° South 99 114 4,600  Level Miami Center
11:09AM 24.8919 -81.6044 199° South 100 115 4,600 -120 Level Miami Center
11:10AM 24.8656 -81.6150 200° South 100 115 4,400 -300 Descending Miami Center
11:11AM 24.8369 -81.6294 205° Southwest 107 123 4,100 -300 Descending Miami Center
11:12AM 24.8019 -81.6492 207° Southwest 112 129 3,800 -300 Descending Miami Center
11:13AM 24.7747 -81.6686 213° Southwest 115 132 3,500 -240 Descending Miami Center
11:14AM 24.7469 -81.6875 212° Southwest 115 132 3,300 -180 Descending Miami Center
11:15AM 24.7217 -81.7094 218° Southwest 115 132 3,200 -120 Descending Miami Center
11:16AM 24.7031 -81.7372 234° Southwest 115 132 3,100 -180 Descending Miami Center
11:17AM 24.6775 -81.7675 227° Southwest 115 132 2,900 -300 Descending Miami Center
11:18AM 24.6528 -81.7919 222° Southwest 116 133 2,500 -540 Descending Miami Center
11:19AM 24.6214 -81.7903 177° South 115 132 1,900 -600 Descending Miami Center
11:20AM 24.5914 -81.7894 179° South 113 130 1,300 -600 Descending Miami Center
11:21AM 24.5683 -81.7906 183° South 101 116 700 -540 Descending Miami Center
11:23AM 24.5556 -81.7742 131° Southeast 79 91 200 -300 Descending Miami Center
11:24AM 24.5547 -81.7506 92° East 79 91 100 -120 Descending Miami Center